Falcona — ER2662 — position and weather

sailwx.info

Track history (hours):
 
Tides and Currents Weather Stations Pressure Air Temp Water Temp Dewpoint Dewpoint Depression Visibility Wind Speed Wind Dir Waves Ship Positions

Falcona

Last reported at 2018-Jan-20 07:58 UTC. Time now 2018-Jan-24 09:54 UTC.
Position N 43°28' E 004°45'.

Length 82 m; draft 3.2 m.

Type: Cargo ship. MMSI: 214182662.

Date/timePositionNaut miles runAvg speedWind from/ knotsBaromVisibWave heightAir tempDewpointWater temp
2018-Jan-20 07:58N 43°28' E 004°45'4 4.3
2018-Jan-20 06:58N 43°24' E 004°47'1 1.2
2018-Jan-20 05:42N 43°23' E 004°49'3 5.9
2018-Jan-20 05:14N 43°23' E 004°53'2 6.4
2018-Jan-20 04:59N 43°24' E 004°55'3 5.7
2018-Jan-20 04:30N 43°22' E 004°58'2 3.7
2018-Jan-20 04:00N 43°20' E 004°59'1 2.2
2018-Jan-20 03:30N 43°19' E 004°59'1 2.1
2018-Jan-20 03:00N 43°18' E 004°60'1 2.3
2018-Jan-20 02:30N 43°17' E 005°01'89 3.6
2018-Jan-19 01:36N 43°27' E 007°03'1 5.5
2018-Jan-19 01:28N 43°27' E 007°04'2 5.3
2018-Jan-19 01:00N 43°28' E 007°07'3 5.5
2018-Jan-19 00:24N 43°30' E 007°11'  
Track history (hours):
 
Tides and Currents Weather Stations Pressure Air Temp Water Temp Dewpoint Dewpoint Depression Visibility Wind Speed Wind Dir Waves Ship Positions

Falcona

Last reported at 2018-Jan-20 07:58 UTC. Time now 2018-Jan-24 09:54 UTC.
Position N 43°28' E 004°45'.

Length 82 m; draft 3.2 m.

Type: Cargo ship. MMSI: 214182662.

Date/timePositionNaut miles runAvg speedWind from/ knotsBaromVisibWave heightAir tempDewpointWater temp
2018-Jan-20 07:58N 43°28' E 004°45'4 4.3
2018-Jan-20 06:58N 43°24' E 004°47'1 1.2
2018-Jan-20 05:42N 43°23' E 004°49'3 5.9
2018-Jan-20 05:14N 43°23' E 004°53'2 6.4
2018-Jan-20 04:59N 43°24' E 004°55'3 5.7
2018-Jan-20 04:30N 43°22' E 004°58'2 3.7
2018-Jan-20 04:00N 43°20' E 004°59'1 2.2
2018-Jan-20 03:30N 43°19' E 004°59'1 2.1
2018-Jan-20 03:00N 43°18' E 004°60'1 2.3
2018-Jan-20 02:30N 43°17' E 005°01'89 3.6
2018-Jan-19 01:36N 43°27' E 007°03'1 5.5
2018-Jan-19 01:28N 43°27' E 007°04'2 5.3
2018-Jan-19 01:00N 43°28' E 007°07'3 5.5
2018-Jan-19 00:24N 43°30' E 007°11'  

Dump ship's entire track history